< < Back
Terminal Aerodrome Forecast


Current Version              Previous Versions:   1  2  3  4  5  6  7  8  9  

Terminal Aerodrome Forecast

449
FTUS44 KMRX 202320
TAFTYS
TAF
KTYS 202320Z 2100/2124 25005KT P6SM SCT040 BKN100
     FM210200 24005KT P6SM SKC
     FM211400 26008KT P6SM SCT040
     FM211700 30010KT P6SM BKN050=

Latest METAR

594
SAUS80 KWBC 211500 RRB
MTRTYS
METAR KTYS 211453Z 26006KT 10SM FEW028 16/11 A3003 RMK AO2 SLP166
T01560111 51012


USA.gov is the U.S. government's official web portal to all federal, state and local government web resources and services.